CYYR

Goose Bay Airport

Goose Bay, Canada
METAR CYYR 140000Z 27015KT 15SM DRSN BKN140 M12/M21 A2999 RMK AC6 SLP160
Observed Flight Rules
Dec-14 @ 00:00 UTC (54 minutes ago) Visual Flight Rules
Wind Visibility Clouds Conditions
270° at 15 knots 15 miles
  • Broken at 14,000' AGL
  • Low drifting
  • Snow
Temperatures Readings
Current -12°C / 10°F
Dewpoint -21°C / -6°F
Humidity 47%
Altimeter 29.99" Hg
Pressure 1016 hPa
Elevation 49
METAR CYYR 140000Z 27015KT 15SM DRSN BKN140 M12/M21 A2999 RMK AC6 SLP160
Observed Flight Rules
Dec-14 @ 00:00 UTC
(54 minutes ago)
VFR
Wind Visibility
270° at 15 knots 15 miles
Clouds
  • Broken at 14,000' AGL
Conditions
  • Low drifting
  • Snow
Temperature Dewpoint
-12°C / 10°F -21°C / -6°F
Humidity Altimeter Pressure
47% 29.99" Hg 1016 hPa